createdAt,value
2023-01-22T00:00:54.882Z,0.00
2023-01-22T00:01:55.123Z,0.00
2023-01-22T00:02:55.370Z,0.00
2023-01-22T00:03:55.619Z,0.00
2023-01-22T00:04:55.852Z,0.00
2023-01-22T00:05:56.080Z,0.00
2023-01-22T00:06:56.428Z,0.00
2023-01-22T00:07:56.678Z,0.00
2023-01-22T00:08:56.899Z,0.00
2023-01-22T00:09:57.250Z,0.00
2023-01-22T00:10:57.507Z,0.00
2023-01-22T00:11:57.747Z,0.00
2023-01-22T00:12:57.970Z,0.00
2023-01-22T00:13:58.200Z,0.00
2023-01-22T00:14:58.421Z,0.00
2023-01-22T00:15:58.808Z,0.00
2023-01-22T00:16:59.088Z,0.00
2023-01-22T00:17:59.322Z,0.00
2023-01-22T00:18:59.567Z,0.00
2023-01-22T00:19:59.772Z,0.00
2023-01-22T00:21:00.139Z,0.00
2023-01-22T00:22:00.362Z,0.00
2023-01-22T00:23:00.600Z,0.00
2023-01-22T00:24:00.819Z,0.00
2023-01-22T00:25:01.093Z,0.00
2023-01-22T00:26:01.289Z,0.00
2023-01-22T00:27:01.629Z,0.00
2023-01-22T00:28:02.004Z,0.00
2023-01-22T00:29:02.230Z,0.00
2023-01-22T00:30:02.483Z,0.00
2023-01-22T00:31:02.810Z,0.00
2023-01-22T00:32:03.180Z,0.00
2023-01-22T00:33:03.271Z,0.00
2023-01-22T00:34:03.492Z,0.00
2023-01-22T00:35:03.864Z,0.00
2023-01-22T00:36:04.091Z,0.00
2023-01-22T00:37:04.420Z,0.00
2023-01-22T00:38:04.772Z,0.00
2023-01-22T00:39:05.014Z,0.00
2023-01-22T00:40:05.233Z,0.00
2023-01-22T00:41:05.574Z,0.00
2023-01-22T00:42:05.929Z,0.00
2023-01-22T00:43:06.272Z,0.00
2023-01-22T00:44:06.483Z,0.00
2023-01-22T00:45:06.813Z,0.00
2023-01-22T00:46:07.159Z,0.00
2023-01-22T00:47:07.412Z,0.00
2023-01-22T00:48:07.761Z,0.00
2023-01-22T00:49:07.990Z,0.00
2023-01-22T00:50:08.203Z,0.00
2023-01-22T00:51:08.587Z,0.00
2023-01-22T00:52:08.845Z,0.00
2023-01-22T00:53:09.213Z,0.00
2023-01-22T00:54:09.440Z,0.00
2023-01-22T00:55:09.672Z,0.00
2023-01-22T00:56:09.884Z,0.00
2023-01-22T00:57:10.224Z,0.00
2023-01-22T00:58:10.601Z,0.00
2023-01-22T00:59:10.821Z,0.00
2023-01-22T01:00:11.035Z,0.00
2023-01-22T01:01:11.410Z,0.00
2023-01-22T01:02:11.654Z,0.00
2023-01-22T01:03:11.872Z,0.00
2023-01-22T01:04:12.206Z,0.00
2023-01-22T01:05:12.535Z,0.00
2023-01-22T01:06:12.894Z,0.00
2023-01-22T01:07:13.096Z,0.00
2023-01-22T01:08:13.467Z,0.00
2023-01-22T01:09:13.686Z,0.00
2023-01-22T01:10:14.038Z,0.00
2023-01-22T01:11:14.268Z,0.00
2023-01-22T01:12:14.483Z,0.00
2023-01-22T01:13:14.861Z,0.00
2023-01-22T01:14:15.077Z,0.00
2023-01-22T01:15:15.439Z,0.00
2023-01-22T01:16:15.760Z,0.00
2023-01-22T01:17:15.957Z,0.00
2023-01-22T01:18:16.196Z,0.00
2023-01-22T01:19:16.413Z,0.00
2023-01-22T01:20:17.047Z,0.00
2023-01-22T01:21:17.031Z,0.00
2023-01-22T01:22:17.273Z,0.00
2023-01-22T01:23:17.496Z,0.00
2023-01-22T01:24:17.716Z,0.00
2023-01-22T01:25:18.074Z,0.00
2023-01-22T01:26:18.300Z,0.00
2023-01-22T01:27:18.525Z,0.00
2023-01-22T01:28:18.885Z,0.00
2023-01-22T01:29:19.107Z,0.00
2023-01-22T01:30:19.828Z,0.00
2023-01-22T01:31:19.886Z,0.00
2023-01-22T01:32:20.126Z,0.00
2023-01-22T01:33:20.448Z,0.00
2023-01-22T01:34:20.677Z,0.00
2023-01-22T01:35:23.312Z,0.00
2023-01-22T01:36:35.496Z,0.00
2023-01-22T01:37:22.453Z,0.00
2023-01-22T01:38:21.773Z,0.00
2023-01-22T01:39:22.003Z,0.00
2023-01-22T01:40:22.250Z,0.00
2023-01-22T01:41:22.607Z,0.00
2023-01-22T01:42:22.817Z,0.00
2023-01-22T01:43:23.189Z,0.00
2023-01-22T01:44:23.448Z,0.00
2023-01-22T01:45:23.651Z,0.00
2023-01-22T01:46:24.029Z,0.00
2023-01-22T01:47:24.238Z,0.00
2023-01-22T01:48:24.487Z,0.00
2023-01-22T01:49:24.709Z,0.00
2023-01-22T01:50:25.065Z,0.00
2023-01-22T01:51:25.291Z,0.00
2023-01-22T01:52:25.511Z,0.00
2023-01-22T01:53:25.900Z,0.00
2023-01-22T01:54:26.140Z,0.00
2023-01-22T01:55:26.366Z,0.00
2023-01-22T01:56:26.703Z,0.00
2023-01-22T01:57:26.923Z,0.00
2023-01-22T01:58:27.299Z,0.00
2023-01-22T01:59:27.499Z,0.00
2023-01-22T02:00:27.893Z,0.00
2023-01-22T02:01:28.181Z,0.00
2023-01-22T02:02:28.392Z,0.00
2023-01-22T02:03:28.774Z,0.00
2023-01-22T02:04:28.972Z,0.00
2023-01-22T02:05:29.314Z,0.00
2023-01-22T02:06:29.546Z,0.00
2023-01-22T02:07:29.892Z,0.00
2023-01-22T02:08:30.133Z,0.00
2023-01-22T02:09:30.344Z,0.00
2023-01-22T02:10:30.694Z,0.00
2023-01-22T02:11:30.942Z,0.00
2023-01-22T02:12:31.163Z,0.00
2023-01-22T02:13:31.524Z,0.00
2023-01-22T02:14:31.751Z,0.00
2023-01-22T02:15:32.104Z,0.00
2023-01-22T02:16:32.388Z,0.00
2023-01-22T02:17:32.635Z,0.00
2023-01-22T02:18:33.023Z,0.00
2023-01-22T02:19:33.263Z,0.00
2023-01-22T02:20:33.496Z,0.00
2023-01-22T02:21:33.733Z,0.00
2023-01-22T02:22:33.955Z,0.00
2023-01-22T02:23:34.312Z,0.00
2023-01-22T02:24:34.516Z,0.00
2023-01-22T02:25:34.864Z,0.00
2023-01-22T02:26:35.185Z,0.00
2023-01-22T02:27:35.535Z,0.00
2023-01-22T02:28:35.899Z,0.00
2023-01-22T02:29:36.135Z,0.00
2023-01-22T02:30:36.417Z,0.00
2023-01-22T02:31:36.681Z,0.00
2023-01-22T02:32:36.908Z,0.00
2023-01-22T02:33:37.259Z,0.00
2023-01-22T02:34:37.487Z,0.00
2023-01-22T02:35:37.733Z,0.00
2023-01-22T02:36:37.927Z,0.00
2023-01-22T02:37:38.277Z,0.00
2023-01-22T02:38:38.558Z,0.00
2023-01-22T02:39:38.796Z,0.00
2023-01-22T02:40:39.008Z,0.00
2023-01-22T02:41:39.377Z,0.00
2023-01-22T02:42:39.582Z,0.00
2023-01-22T02:43:39.938Z,0.00
2023-01-22T02:44:40.180Z,0.00
2023-01-22T02:45:40.420Z,0.00
2023-01-22T02:46:40.629Z,0.00
2023-01-22T02:47:40.979Z,0.00
2023-01-22T02:48:41.215Z,0.00
2023-01-22T02:49:41.436Z,0.00
2023-01-22T02:50:41.793Z,0.00
2023-01-22T02:51:42.035Z,0.00
2023-01-22T02:52:42.244Z,0.00
2023-01-22T02:53:42.593Z,0.00
2023-01-22T02:54:42.797Z,0.00
2023-01-22T02:55:43.148Z,0.00
2023-01-22T02:56:43.368Z,0.00
2023-01-22T02:57:43.701Z,0.00
2023-01-22T02:58:44.089Z,0.00
2023-01-22T02:59:44.300Z,0.00
2023-01-22T03:00:44.717Z,0.00
2023-01-22T03:01:44.940Z,0.00
2023-01-22T03:02:45.177Z,0.00
2023-01-22T03:03:45.430Z,0.00
2023-01-22T03:04:45.640Z,0.00
2023-01-22T03:05:45.879Z,0.00
2023-01-22T03:06:46.108Z,0.00
2023-01-22T03:07:46.457Z,0.00
2023-01-22T03:08:46.679Z,0.00
2023-01-22T03:09:46.921Z,0.00
2023-01-22T03:10:47.154Z,0.00
2023-01-22T03:11:47.371Z,0.00
2023-01-22T03:12:47.700Z,0.00
2023-01-22T03:13:48.083Z,0.00
2023-01-22T03:14:48.311Z,0.00
2023-01-22T03:15:48.523Z,0.00
2023-01-22T03:16:49.022Z,0.00
2023-01-22T03:17:49.114Z,0.00
2023-01-22T03:18:49.461Z,0.00
2023-01-22T03:19:49.690Z,0.00
2023-01-22T03:20:50.041Z,0.00
2023-01-22T03:21:50.273Z,0.00
2023-01-22T03:22:50.539Z,0.00
2023-01-22T03:23:50.808Z,0.00
2023-01-22T03:24:51.001Z,0.00
2023-01-22T03:25:51.332Z,0.00
2023-01-22T03:26:51.689Z,0.00
2023-01-22T03:27:51.892Z,0.00
2023-01-22T03:28:52.271Z,0.00
2023-01-22T03:30:00.051Z,0.00
2023-01-22T03:30:52.847Z,0.00
2023-01-22T03:31:53.124Z,0.00
2023-01-22T03:32:53.329Z,0.00
2023-01-22T03:33:53.697Z,0.00
2023-01-22T03:34:53.951Z,0.00
2023-01-22T03:35:54.157Z,0.00
2023-01-22T03:36:54.487Z,0.00
2023-01-22T03:37:54.830Z,0.00
2023-01-22T03:38:55.213Z,0.00
2023-01-22T03:39:55.401Z,0.00
2023-01-22T03:40:55.745Z,0.00
2023-01-22T03:41:55.946Z,0.00
2023-01-22T03:42:56.269Z,0.00
2023-01-22T03:43:56.612Z,0.00
2023-01-22T03:44:56.945Z,0.00
2023-01-22T03:45:57.266Z,0.00
2023-01-22T03:46:57.595Z,0.00
2023-01-22T03:47:57.938Z,0.00
2023-01-22T03:48:58.294Z,0.00
2023-01-22T03:49:58.500Z,0.00
2023-01-22T03:50:58.847Z,0.00
2023-01-22T03:51:59.157Z,0.00
2023-01-22T03:52:59.498Z,0.00
2023-01-22T03:53:59.859Z,0.00
2023-01-22T03:55:00.168Z,0.00
2023-01-22T03:56:00.504Z,0.00
2023-01-22T03:57:00.831Z,0.00
2023-01-22T03:58:01.149Z,0.00
2023-01-22T03:59:01.494Z,0.00
2023-01-22T04:00:01.807Z,0.00
2023-01-22T04:01:02.189Z,0.00
2023-01-22T04:02:02.444Z,0.00
2023-01-22T04:03:02.659Z,0.00
2023-01-22T04:04:02.992Z,0.00
2023-01-22T04:05:03.323Z,0.00
2023-01-22T04:06:03.661Z,0.00
2023-01-22T04:07:04.007Z,0.00
2023-01-22T04:08:04.322Z,0.00
2023-01-22T04:09:04.657Z,0.00
2023-01-22T04:10:04.873Z,0.00
2023-01-22T04:11:05.190Z,0.00
2023-01-22T04:12:05.520Z,0.00
2023-01-22T04:13:05.881Z,0.00
2023-01-22T04:14:06.092Z,0.00
2023-01-22T04:15:06.420Z,0.00
2023-01-22T04:16:06.760Z,0.00
2023-01-22T04:17:07.093Z,0.00
2023-01-22T04:18:07.404Z,0.00
2023-01-22T04:19:07.754Z,0.00
2023-01-22T04:20:07.974Z,0.00
2023-01-22T04:21:08.323Z,0.00
2023-01-22T04:22:08.535Z,0.00
2023-01-22T04:23:08.888Z,0.00
2023-01-22T04:24:09.221Z,0.00
2023-01-22T04:25:09.576Z,0.00
2023-01-22T04:26:09.893Z,0.00
2023-01-22T04:27:10.214Z,0.00
2023-01-22T04:28:10.546Z,0.00
2023-01-22T04:29:10.898Z,0.00
2023-01-22T04:30:11.107Z,0.00
2023-01-22T04:31:11.525Z,0.00
2023-01-22T04:32:11.744Z,0.00
2023-01-22T04:33:12.091Z,0.00
2023-01-22T04:34:12.436Z,0.00
2023-01-22T04:35:12.645Z,0.00
2023-01-22T04:36:12.975Z,0.00
2023-01-22T04:37:13.296Z,0.00
2023-01-22T04:38:13.637Z,0.00
2023-01-22T04:39:13.943Z,0.00
2023-01-22T04:40:14.141Z,0.00
2023-01-22T04:41:14.453Z,0.00
2023-01-22T04:42:14.785Z,0.00
2023-01-22T04:43:15.125Z,0.00
2023-01-22T04:44:15.473Z,0.00
2023-01-22T04:45:15.801Z,0.00
2023-01-22T04:46:16.293Z,0.00
2023-01-22T04:47:16.411Z,0.00
2023-01-22T04:48:16.617Z,0.00
2023-01-22T04:49:16.966Z,0.00
2023-01-22T04:50:17.585Z,0.00
2023-01-22T04:51:17.457Z,0.00
2023-01-22T04:52:17.756Z,0.00
2023-01-22T04:53:18.108Z,0.00
2023-01-22T04:54:18.439Z,0.00
2023-01-22T04:55:18.775Z,0.00
2023-01-22T04:56:19.113Z,0.00
2023-01-22T04:57:19.452Z,0.00
2023-01-22T04:58:19.648Z,0.00
2023-01-22T04:59:19.999Z,0.00
2023-01-22T05:00:20.391Z,0.00
2023-01-22T05:01:20.528Z,0.00
2023-01-22T05:02:20.735Z,0.00
2023-01-22T05:03:21.047Z,0.00
2023-01-22T05:04:21.395Z,0.00
2023-01-22T05:05:21.639Z,0.00
2023-01-22T05:06:21.973Z,0.00
2023-01-22T05:07:22.305Z,0.00
2023-01-22T05:08:22.620Z,0.00
2023-01-22T05:09:22.961Z,0.00
2023-01-22T05:10:23.297Z,0.00
2023-01-22T05:11:23.624Z,0.00
2023-01-22T05:12:23.959Z,0.00
2023-01-22T05:13:24.272Z,0.00
2023-01-22T05:14:24.629Z,0.00
2023-01-22T05:15:25.401Z,0.00
2023-01-22T05:16:25.126Z,0.00
2023-01-22T05:17:25.447Z,0.00
2023-01-22T05:18:25.771Z,0.00
2023-01-22T05:19:26.115Z,0.00
2023-01-22T05:20:26.431Z,0.00
2023-01-22T05:21:26.772Z,0.00
2023-01-22T05:22:27.112Z,0.00
2023-01-22T05:23:27.438Z,0.00
2023-01-22T05:24:27.797Z,0.00
2023-01-22T05:25:28.127Z,0.00
2023-01-22T05:26:28.334Z,0.00
2023-01-22T05:27:28.660Z,0.00
2023-01-22T05:28:28.992Z,0.00
2023-01-22T05:29:29.359Z,0.00
2023-01-22T05:30:29.582Z,0.00
2023-01-22T05:31:29.887Z,0.00
2023-01-22T05:32:30.080Z,0.00
2023-01-22T05:33:30.414Z,0.00
2023-01-22T05:34:30.763Z,0.00
2023-01-22T05:35:30.993Z,0.00
2023-01-22T05:36:31.333Z,0.00
2023-01-22T05:37:31.653Z,0.00
2023-01-22T05:38:31.998Z,0.00
2023-01-22T05:39:32.340Z,0.00
2023-01-22T05:40:32.653Z,0.00
2023-01-22T05:41:32.993Z,0.00
2023-01-22T05:42:33.318Z,0.00
2023-01-22T05:43:33.660Z,0.00
2023-01-22T05:44:34.012Z,0.00
2023-01-22T05:45:34.214Z,0.00
2023-01-22T05:46:34.566Z,0.00
2023-01-22T05:47:34.886Z,0.00
2023-01-22T05:48:35.215Z,0.00
2023-01-22T05:49:35.563Z,0.00
2023-01-22T05:50:35.773Z,0.00
2023-01-22T05:51:36.105Z,0.00
2023-01-22T05:52:36.433Z,0.00
2023-01-22T05:53:36.755Z,0.00
2023-01-22T05:54:37.093Z,0.00
2023-01-22T05:55:37.407Z,0.00
2023-01-22T05:56:37.718Z,0.00
2023-01-22T05:57:38.045Z,0.00
2023-01-22T05:58:38.365Z,0.00
2023-01-22T05:59:38.723Z,0.00
2023-01-22T06:00:39.029Z,0.00
2023-01-22T06:01:39.355Z,0.00
2023-01-22T06:02:39.619Z,0.00
2023-01-22T06:03:39.898Z,0.00
2023-01-22T06:04:40.100Z,0.00
2023-01-22T06:05:40.425Z,0.00
2023-01-22T06:06:40.764Z,0.00
2023-01-22T06:07:41.084Z,0.00
2023-01-22T06:08:41.416Z,0.00
2023-01-22T06:09:41.766Z,0.00
2023-01-22T06:10:41.967Z,0.00
2023-01-22T06:11:42.287Z,0.00
2023-01-22T06:12:42.621Z,0.00
2023-01-22T06:13:42.871Z,0.00
2023-01-22T06:14:43.233Z,0.00
2023-01-22T06:15:43.470Z,0.00
2023-01-22T06:16:43.683Z,0.00
2023-01-22T06:17:44.024Z,0.00
2023-01-22T06:18:44.329Z,0.00
2023-01-22T06:19:44.680Z,0.00
2023-01-22T06:20:44.906Z,0.00
2023-01-22T06:21:45.233Z,0.00
2023-01-22T06:22:45.576Z,0.00
2023-01-22T06:23:45.890Z,0.00
2023-01-22T06:24:46.231Z,0.00
2023-01-22T06:25:46.561Z,0.00
2023-01-22T06:26:46.877Z,0.00
2023-01-22T06:27:47.229Z,0.00
2023-01-22T06:28:47.445Z,0.00
2023-01-22T06:29:47.780Z,0.00
2023-01-22T06:30:48.133Z,4.00
2023-01-22T06:31:48.500Z,0.00
2023-01-22T06:32:48.687Z,0.00
2023-01-22T06:33:49.028Z,4.00
2023-01-22T06:34:49.377Z,0.00
2023-01-22T06:35:49.581Z,4.00
2023-01-22T06:36:49.929Z,4.00
2023-01-22T06:37:50.263Z,0.00
2023-01-22T06:38:50.595Z,4.00
2023-01-22T06:39:50.946Z,4.00
2023-01-22T06:40:51.261Z,4.00
2023-01-22T06:41:51.590Z,8.00
2023-01-22T06:42:51.922Z,8.00
2023-01-22T06:43:52.242Z,12.00
2023-01-22T06:44:52.602Z,8.00
2023-01-22T06:45:52.829Z,12.00
2023-01-22T06:46:53.160Z,16.00
2023-01-22T06:47:53.509Z,12.00
2023-01-22T06:48:53.841Z,20.00
2023-01-22T06:49:54.211Z,20.00
2023-01-22T06:50:54.436Z,20.00
2023-01-22T06:51:54.783Z,24.00
2023-01-22T06:52:55.104Z,28.00
2023-01-22T06:53:55.446Z,32.00
2023-01-22T06:54:55.795Z,36.00
2023-01-22T06:55:56.131Z,40.00
2023-01-22T06:56:56.472Z,48.00
2023-01-22T06:57:56.816Z,48.00
2023-01-22T06:58:57.148Z,56.00
2023-01-22T06:59:57.503Z,64.00
2023-01-22T07:00:57.724Z,64.00
2023-01-22T07:01:58.104Z,68.00
2023-01-22T07:02:58.359Z,68.00
2023-01-22T07:03:58.583Z,76.00
2023-01-22T07:04:58.822Z,80.00
2023-01-22T07:05:59.046Z,92.00
2023-01-22T07:06:59.387Z,100.00
2023-01-22T07:07:59.629Z,100.00
2023-01-22T07:08:59.856Z,108.00
2023-01-22T07:10:00.143Z,112.00
2023-01-22T07:11:00.359Z,120.00
2023-01-22T07:12:00.592Z,132.00
2023-01-22T07:13:00.824Z,136.00
2023-01-22T07:14:01.079Z,148.00
2023-01-22T07:15:01.330Z,156.00
2023-01-22T07:16:01.571Z,168.00
2023-01-22T07:17:01.830Z,176.00
2023-01-22T07:18:02.064Z,188.00
2023-01-22T07:19:02.277Z,196.00
2023-01-22T07:20:02.527Z,204.00
2023-01-22T07:21:02.755Z,232.00
2023-01-22T07:22:02.986Z,248.00
2023-01-22T07:23:03.236Z,268.00
2023-01-22T07:24:03.467Z,276.00
2023-01-22T07:25:03.718Z,288.00
2023-01-22T07:26:03.943Z,300.00
2023-01-22T07:27:04.187Z,308.00
2023-01-22T07:28:04.516Z,316.00
2023-01-22T07:29:04.756Z,300.00
2023-01-22T07:30:05.006Z,300.00
2023-01-22T07:31:05.342Z,300.00
2023-01-22T07:32:05.574Z,312.00
2023-01-22T07:33:05.808Z,336.00
2023-01-22T07:34:06.052Z,372.00
2023-01-22T07:35:06.308Z,396.00
2023-01-22T07:36:06.548Z,400.00
2023-01-22T07:37:06.774Z,428.00
2023-01-22T07:38:07.016Z,468.00
2023-01-22T07:39:07.251Z,476.00
2023-01-22T07:40:07.494Z,504.00
2023-01-22T07:41:20.278Z,516.00
2023-01-22T07:42:08.986Z,524.00
2023-01-22T07:43:08.303Z,548.00
2023-01-22T07:44:09.296Z,552.00
2023-01-22T07:45:08.894Z,588.00
2023-01-22T07:46:09.248Z,588.00
2023-01-22T07:47:09.404Z,584.00
2023-01-22T07:48:09.630Z,596.00
2023-01-22T07:49:09.860Z,616.00
2023-01-22T07:50:10.123Z,604.00
2023-01-22T07:51:10.420Z,644.00
2023-01-22T07:52:10.652Z,684.00
2023-01-22T07:53:10.886Z,728.00
2023-01-22T07:54:11.121Z,712.00
2023-01-22T07:55:11.383Z,764.00
2023-01-22T07:56:11.629Z,740.00
2023-01-22T07:57:11.910Z,744.00
2023-01-22T07:58:12.169Z,720.00
2023-01-22T07:59:12.390Z,712.00
2023-01-22T08:00:12.642Z,700.00
2023-01-22T08:01:12.946Z,684.00
2023-01-22T08:02:13.418Z,652.00
2023-01-22T08:03:13.522Z,624.00
2023-01-22T08:04:13.749Z,580.00
2023-01-22T08:05:13.995Z,576.00
2023-01-22T08:06:14.213Z,568.00
2023-01-22T08:07:14.460Z,580.00
2023-01-22T08:08:14.701Z,568.00
2023-01-22T08:09:14.946Z,596.00
2023-01-22T08:10:15.214Z,600.00
2023-01-22T08:11:15.452Z,600.00
2023-01-22T08:12:15.701Z,612.00
2023-01-22T08:13:15.942Z,628.00
2023-01-22T08:14:16.174Z,648.00
2023-01-22T08:15:16.431Z,688.00
2023-01-22T08:16:16.792Z,680.00
2023-01-22T08:17:16.993Z,692.00
2023-01-22T08:18:19.099Z,780.00
2023-01-22T08:19:17.557Z,848.00
2023-01-22T08:20:18.143Z,928.00
2023-01-22T08:21:18.044Z,944.00
2023-01-22T08:22:18.271Z,1028.00
2023-01-22T08:23:18.868Z,940.00
2023-01-22T08:24:18.780Z,908.00
2023-01-22T08:25:19.043Z,924.00
2023-01-22T08:26:19.275Z,1064.00
2023-01-22T08:27:19.540Z,1172.00
2023-01-22T08:28:19.797Z,1044.00
2023-01-22T08:29:20.053Z,996.00
2023-01-22T08:30:20.659Z,1012.00
2023-01-22T08:31:27.833Z,1140.00
2023-01-22T08:32:21.877Z,1100.00
2023-01-22T08:33:21.135Z,1112.00
2023-01-22T08:34:21.385Z,1096.00
2023-01-22T08:35:21.797Z,1116.00
2023-01-22T08:36:21.883Z,1140.00
2023-01-22T08:37:22.173Z,1120.00
2023-01-22T08:38:22.422Z,1004.00
2023-01-22T08:39:22.666Z,1052.00
2023-01-22T08:40:22.938Z,1096.00
2023-01-22T08:41:23.215Z,1064.00
2023-01-22T08:42:23.477Z,1092.00
2023-01-22T08:43:23.767Z,1100.00
2023-01-22T08:44:24.016Z,1064.00
2023-01-22T08:45:24.281Z,1008.00
2023-01-22T08:46:24.537Z,1080.00
2023-01-22T08:47:24.811Z,1100.00
2023-01-22T08:48:26.011Z,1132.00
2023-01-22T08:49:25.324Z,1220.00
2023-01-22T08:50:25.657Z,1136.00
2023-01-22T08:51:25.974Z,1148.00
2023-01-22T08:52:26.227Z,1172.00
2023-01-22T08:53:26.492Z,1260.00
2023-01-22T08:54:26.740Z,1336.00
2023-01-22T08:55:27.028Z,1328.00
2023-01-22T08:56:27.278Z,1372.00
2023-01-22T08:57:27.537Z,1292.00
2023-01-22T08:58:27.819Z,1232.00
2023-01-22T08:59:30.827Z,1200.00
2023-01-22T09:00:28.381Z,1208.00
2023-01-22T09:01:28.682Z,1164.00
2023-01-22T09:02:29.026Z,1212.00
2023-01-22T09:03:29.170Z,1252.00
2023-01-22T09:04:29.409Z,1232.00
2023-01-22T09:05:29.698Z,1236.00
2023-01-22T09:06:29.971Z,1160.00
2023-01-22T09:07:30.219Z,1180.00
2023-01-22T09:08:30.479Z,1148.00
2023-01-22T09:09:30.730Z,1132.00
2023-01-22T09:10:30.989Z,1108.00
2023-01-22T09:11:31.259Z,1096.00
2023-01-22T09:12:31.528Z,1140.00
2023-01-22T09:13:31.803Z,1088.00
2023-01-22T09:14:32.103Z,1192.00
2023-01-22T09:15:32.388Z,1164.00
2023-01-22T09:16:32.716Z,1308.00
2023-01-22T09:17:32.971Z,1228.00
2023-01-22T09:18:33.243Z,1276.00
2023-01-22T09:19:33.499Z,1236.00
2023-01-22T09:20:33.828Z,1260.00
2023-01-22T09:21:34.193Z,1308.00
2023-01-22T09:22:34.367Z,1408.00
2023-01-22T09:23:34.631Z,1596.00
2023-01-22T09:24:34.945Z,1620.00
2023-01-22T09:25:35.221Z,1612.00
2023-01-22T09:26:35.856Z,1600.00
2023-01-22T09:27:35.791Z,1688.00
2023-01-22T09:28:36.309Z,1860.00
2023-01-22T09:29:36.294Z,1856.00
2023-01-22T09:30:36.613Z,1908.00
2023-01-22T09:31:37.013Z,1920.00
2023-01-22T09:32:37.105Z,1840.00
2023-01-22T09:33:37.362Z,1748.00
2023-01-22T09:34:37.634Z,1736.00
2023-01-22T09:35:37.913Z,1656.00
2023-01-22T09:36:38.152Z,1572.00
2023-01-22T09:37:38.403Z,1512.00
2023-01-22T09:38:38.681Z,1420.00
2023-01-22T09:39:38.929Z,1348.00
2023-01-22T09:40:39.189Z,1336.00
2023-01-22T09:41:39.463Z,1364.00
2023-01-22T09:42:39.704Z,1592.00
2023-01-22T09:43:39.965Z,1484.00
2023-01-22T09:44:40.230Z,1476.00
2023-01-22T09:45:40.534Z,1552.00
2023-01-22T09:46:40.782Z,1672.00
2023-01-22T09:47:41.092Z,1724.00
2023-01-22T09:48:41.389Z,1828.00
2023-01-22T09:49:41.719Z,1860.00
2023-01-22T09:50:42.003Z,1820.00
2023-01-22T09:51:42.271Z,1780.00
2023-01-22T09:52:42.535Z,2060.00
2023-01-22T09:53:42.786Z,2140.00
2023-01-22T09:54:43.052Z,2040.00
2023-01-22T09:55:43.337Z,1892.00
2023-01-22T09:56:43.576Z,1824.00
2023-01-22T09:57:43.833Z,1800.00
2023-01-22T09:58:44.082Z,1860.00
2023-01-22T09:59:44.344Z,1860.00
2023-01-22T10:00:44.630Z,2040.00
2023-01-22T10:01:44.874Z,2144.00
2023-01-22T10:02:45.172Z,2112.00
2023-01-22T10:03:45.463Z,1904.00
2023-01-22T10:04:45.730Z,1840.00
2023-01-22T10:05:46.007Z,2172.00
2023-01-22T10:06:46.246Z,2428.00
2023-01-22T10:07:46.494Z,2468.00
2023-01-22T10:08:46.731Z,2468.00
2023-01-22T10:09:47.005Z,2460.00
2023-01-22T10:10:47.257Z,2540.00
2023-01-22T10:11:47.507Z,2668.00
2023-01-22T10:12:47.757Z,2728.00
2023-01-22T10:13:48.040Z,3156.00
2023-01-22T10:14:48.287Z,3264.00
2023-01-22T10:15:48.549Z,3132.00
2023-01-22T10:16:48.862Z,3068.00
2023-01-22T10:17:49.136Z,2904.00
2023-01-22T10:18:49.406Z,2872.00
2023-01-22T10:19:49.661Z,2872.00
2023-01-22T10:20:50.007Z,2732.00
2023-01-22T10:21:50.208Z,2528.00
2023-01-22T10:22:50.546Z,2344.00
2023-01-22T10:23:50.852Z,2300.00
2023-01-22T10:24:51.024Z,2352.00
2023-01-22T10:25:51.282Z,2180.00
2023-01-22T10:26:51.540Z,2200.00
2023-01-22T10:27:51.839Z,2220.00
2023-01-22T10:28:52.119Z,2200.00
2023-01-22T10:29:52.388Z,2256.00
2023-01-22T10:30:52.723Z,2232.00
2023-01-22T10:31:53.148Z,2364.00
2023-01-22T10:32:53.296Z,2192.00
2023-01-22T10:33:53.561Z,2032.00
2023-01-22T10:34:53.819Z,1996.00
2023-01-22T10:35:54.139Z,2056.00
2023-01-22T10:36:54.397Z,2192.00
2023-01-22T10:37:54.679Z,2176.00
2023-01-22T10:38:54.969Z,2172.00
2023-01-22T10:39:55.241Z,2168.00
2023-01-22T10:40:55.550Z,2180.00
2023-01-22T10:41:55.829Z,2152.00
2023-01-22T10:42:56.090Z,2156.00
2023-01-22T10:43:56.382Z,2092.00
2023-01-22T10:44:56.640Z,2056.00
2023-01-22T10:45:56.957Z,1988.00
2023-01-22T10:46:57.252Z,1968.00
2023-01-22T10:47:57.569Z,1920.00
2023-01-22T10:48:57.888Z,1960.00
2023-01-22T10:49:58.202Z,2060.00
2023-01-22T10:50:58.520Z,1972.00
2023-01-22T10:51:59.589Z,2168.00
2023-01-22T10:52:59.054Z,2088.00
2023-01-22T10:53:59.425Z,2136.00
2023-01-22T10:54:59.594Z,2024.00
2023-01-22T10:55:59.843Z,2056.00
2023-01-22T10:57:00.120Z,2264.00
2023-01-22T10:58:00.452Z,2288.00
2023-01-22T10:59:00.801Z,2280.00
2023-01-22T11:00:01.120Z,2472.00
2023-01-22T11:01:01.463Z,2440.00
2023-01-22T11:02:01.651Z,2544.00
2023-01-22T11:03:01.930Z,2456.00
2023-01-22T11:04:02.233Z,2428.00
2023-01-22T11:05:02.546Z,2440.00
2023-01-22T11:06:02.833Z,2312.00
2023-01-22T11:07:03.154Z,2352.00
2023-01-22T11:08:03.473Z,2408.00
2023-01-22T11:09:03.776Z,2416.00
2023-01-22T11:10:04.084Z,2504.00
2023-01-22T11:11:04.419Z,2616.00
2023-01-22T11:12:04.699Z,2696.00
2023-01-22T11:13:04.964Z,2616.00
2023-01-22T11:14:05.289Z,2712.00
2023-01-22T11:15:05.605Z,2716.00
2023-01-22T11:16:05.978Z,2840.00
2023-01-22T11:17:06.129Z,2912.00
2023-01-22T11:18:06.473Z,2868.00
2023-01-22T11:19:06.904Z,2900.00
2023-01-22T11:20:07.047Z,3116.00
2023-01-22T11:21:08.362Z,2848.00
2023-01-22T11:22:07.708Z,3092.00
2023-01-22T11:23:07.919Z,3232.00
2023-01-22T11:24:08.209Z,2908.00
2023-01-22T11:25:08.516Z,2916.00
2023-01-22T11:26:08.848Z,2812.00
2023-01-22T11:27:09.173Z,2732.00
2023-01-22T11:28:09.503Z,2644.00
2023-01-22T11:29:09.848Z,2448.00
2023-01-22T11:30:10.047Z,2360.00
2023-01-22T11:31:10.403Z,2520.00
2023-01-22T11:32:10.565Z,2720.00
2023-01-22T11:33:10.889Z,2576.00
2023-01-22T11:34:11.213Z,2528.00
2023-01-22T11:35:11.529Z,2548.00
2023-01-22T11:36:11.852Z,2368.00
2023-01-22T11:37:12.139Z,2264.00
2023-01-22T11:38:12.443Z,2380.00
2023-01-22T11:39:12.945Z,2312.00
2023-01-22T11:40:13.044Z,2276.00
2023-01-22T11:41:13.368Z,2260.00
2023-01-22T11:42:13.549Z,2264.00
2023-01-22T11:43:13.871Z,2408.00
2023-01-22T11:44:14.158Z,2552.00
2023-01-22T11:45:14.447Z,2484.00
2023-01-22T11:46:14.784Z,2348.00
2023-01-22T11:47:15.024Z,2088.00
2023-01-22T11:48:15.334Z,1908.00
2023-01-22T11:49:15.635Z,1800.00
2023-01-22T11:50:16.054Z,1660.00
2023-01-22T11:51:16.337Z,1948.00
2023-01-22T11:52:16.564Z,2040.00
2023-01-22T11:53:16.823Z,1916.00
2023-01-22T11:54:17.311Z,1872.00
2023-01-22T11:55:17.520Z,1996.00
2023-01-22T11:56:17.711Z,1916.00
2023-01-22T11:57:18.024Z,1868.00
2023-01-22T11:58:18.230Z,1852.00
2023-01-22T11:59:18.578Z,1856.00
2023-01-22T12:00:19.165Z,1756.00
2023-01-22T12:01:19.050Z,1724.00
2023-01-22T12:02:19.397Z,1636.00
2023-01-22T12:03:19.553Z,1764.00
2023-01-22T12:04:19.851Z,1644.00
2023-01-22T12:05:20.120Z,1732.00
2023-01-22T12:06:20.420Z,1648.00
2023-01-22T12:07:20.754Z,1504.00
2023-01-22T12:08:21.066Z,1536.00
2023-01-22T12:09:21.372Z,1652.00
2023-01-22T12:10:21.850Z,1596.00
2023-01-22T12:11:21.895Z,1568.00
2023-01-22T12:12:22.172Z,1676.00
2023-01-22T12:13:22.490Z,1700.00
2023-01-22T12:14:22.774Z,1684.00
2023-01-22T12:15:23.043Z,1524.00
2023-01-22T12:16:23.393Z,1588.00
2023-01-22T12:17:23.794Z,1608.00
2023-01-22T12:18:23.813Z,1644.00
2023-01-22T12:19:24.064Z,1764.00
2023-01-22T12:20:24.360Z,1924.00
2023-01-22T12:21:24.624Z,1980.00
2023-01-22T12:22:24.905Z,2064.00
2023-01-22T12:23:25.155Z,2196.00
2023-01-22T12:24:25.428Z,2792.00
2023-01-22T12:25:25.695Z,2664.00
2023-01-22T12:26:25.954Z,2392.00
2023-01-22T12:27:26.244Z,2084.00
2023-01-22T12:28:26.477Z,1852.00
2023-01-22T12:29:26.807Z,1704.00
2023-01-22T12:30:27.059Z,1592.00
2023-01-22T12:31:27.431Z,1780.00
2023-01-22T12:32:27.630Z,1764.00
2023-01-22T12:33:27.935Z,1720.00
2023-01-22T12:34:28.218Z,1820.00
2023-01-22T12:35:28.511Z,1796.00
2023-01-22T12:36:28.789Z,1792.00
2023-01-22T12:37:29.064Z,1716.00
2023-01-22T12:38:29.308Z,1644.00
2023-01-22T12:39:29.601Z,1604.00
2023-01-22T12:40:29.877Z,1572.00
2023-01-22T12:41:30.187Z,1520.00
2023-01-22T12:42:30.447Z,1468.00
2023-01-22T12:43:30.731Z,1400.00
2023-01-22T12:44:31.024Z,1364.00
2023-01-22T12:45:31.310Z,1304.00
2023-01-22T12:46:31.671Z,1340.00
2023-01-22T12:47:31.833Z,1232.00
2023-01-22T12:48:32.091Z,1200.00
2023-01-22T12:49:32.377Z,1172.00
2023-01-22T12:50:32.652Z,1116.00